Main page
METAR-TAF:

METAR-TAF

Airports :

Nawabshah Airport

Nawabshah, Pakistan

latitude: 26-15N, longitude: 068-22E, elevation: 37 m

Current weather observation

The report was made 47 minutes ago, at 14:00 UTC
Wind 8 kt from the Southeast
Temperature 23°C
Humidity 50%
Pressure 1010 hPa
Visibility: 3000 m
smoke

METAR: OPNH 211400Z 13508KT 3000 FU NSC 23/12 Q1010 TEMPO 2000 FU

Time: 19:47 (14:47 UTC)

Forecast

The report was made 11 hours and 17 minutes ago, at 03:30 UTC
Forecast valid from 21 at 06 UTC to 22 at 12 UTC
Wind 10 kt from the South
Visibility: 4000 m
smoke
Becoming
from 21 at 18 UTC to 21 at 20 UTC
Wind 5 kt from the South
Visibility: 2000 m
smoke
Temporary
from 22 at 00 UTC to 22 at 05 UTC
Wind kt from the North
Visibility: 0800 m
fog

TAF: OPNH 210330Z 2106/2212 18010KT 4000 FU NSC BECMG 2118/2120 18005KT 2000 FU NSC TEMPO 2200/2205 00000KT 0800 FG VV///

Weather observations and forecasts of more than 4000 airports (METAR and TAF reports).

The available stations are represented by yellow and red dots on the map.

Hover mouse over dot to see the name of the station.

Then click to see weather observations and forecasts.

To change the map : click on the green buttons with a black cross to zoom in, on the green button with a dash to zoom out, or on the green arrows for adjacent maps.


METAR-TAF: